Time;durP1;ratioP1;P1;durP2;ratioP2;P2;SDS_P1;SDS_P2;PMS_P1;PMS_P2;Temp;Humidity;BMP_temperature;BMP_pressure;BME280_temperature;BME280_humidity;BME280_pressure;Samples;Min_cycle;Max_cycle;Signal;HPM_P1;HPM_P2
2022/03/15 00:00:11;;;;;;;;;;;;;;;;;;1035286;28;1173;-31
2022/03/15 00:00:44;;;;;;;;;;;;;;;;;;1039447;28;1240;-33
2022/03/15 00:01:15;;;;;;;;;;;;;;;;;;1039174;28;1117;-32
2022/03/15 00:01:45;;;;;;;;;;;;;;;;;;1039254;28;1204;-29
2022/03/15 00:02:16;;;;;;;;;;;;;;;;;;1039817;28;1117;-27
2022/03/15 00:02:46;;;;;;;;;;;;;;;;;;1039755;28;1145;-30
2022/03/15 00:03:17;;;;;;;;;;;;;;;;;;1039823;28;1110;-30
2022/03/15 00:03:48;;;;;;;;;;;;;;;;;;1039791;28;1121;-31
2022/03/15 00:04:19;;;;;;;;;;;;;;;;;;1039561;28;1914;-29
2022/03/15 00:04:49;;;;;;;;;;;;;;;;;;1039931;28;1216;-27
2022/03/15 00:05:20;;;;;;;;;;;;;;;;;;1039870;28;800;-33
2022/03/15 00:05:51;;;;;;;;;;;;;;;;;;1040076;28;910;-32
2022/03/15 00:06:21;;;;;;;;;;;;;;;;;;1040105;28;906;-30
2022/03/15 00:06:51;;;;;;;;;;;;;;;;;;1039890;28;942;-29
2022/03/15 00:07:23;;;;;;;;;;;;;;;;;;1040111;28;819;-29
2022/03/15 00:07:53;;;;;;;;;;;;;;;;;;1039587;28;1105;-34
2022/03/15 00:08:23;;;;;;;;;;;;;;;;;;1039977;28;1098;-30
2022/03/15 00:08:54;;;;;;;;;;;;;;;;;;1039282;28;1038;-29
2022/03/15 00:09:25;;;;;;;;;;;;;;;;;;1041245;28;1805;-32
2022/03/15 00:09:56;;;;;;;;;;;;;;;;;;1040922;28;1180;-30
2022/03/15 00:10:27;;;;;;;;;;;;;;;;;;1041900;28;1176;-29
2022/03/15 00:11:05;;;;;;;;;;;;;;;;;;1042038;28;1393;-31
2022/03/15 00:11:37;;;;;;;;;;;;;;;;;;1039981;28;1077;-31
2022/03/15 00:12:11;;;;;;;;;;;;;;;;;;1039832;28;1105;-29
2022/03/15 00:12:42;;;;;;;;;;;;;;;;;;1040022;28;1175;-28
2022/03/15 00:13:12;;;;;;;;;;;;;;;;;;1039785;28;1188;-30
2022/03/15 00:13:43;;;;;;;;;;;;;;;;;;1039985;28;1181;-30
2022/03/15 00:14:14;;;;;;;;;;;;;;;;;;1039825;28;1236;-28
2022/03/15 00:14:46;;;;;;;;;;;;;;;;;;1039995;28;1113;-29
2022/03/15 00:15:16;;;;;;;;;;;;;;;;;;1039840;28;1248;-32
2022/03/15 00:15:48;;;;;;;;;;;;;;;;;;1039978;28;1137;-31
2022/03/15 00:16:18;;;;;;;;;;;;;;;;;;1039191;28;1105;-32
2022/03/15 00:16:49;;;;;;;;;;;;;;;;;;1039999;28;1141;-33
2022/03/15 00:17:20;;;;;;;;;;;;;;;;;;1039707;28;1122;-29
2022/03/15 00:17:51;;;;;;;;;;;;;;;;;;1039896;28;1180;-29
2022/03/15 00:18:22;;;;;;;;;;;;;;;;;;1039994;28;1130;-29
2022/03/15 00:18:52;;;;;;;;;;;;;;;;;;1039803;28;1074;-29
2022/03/15 00:19:23;;;;;;;;;;;;;;;;;;1040050;28;850;-30
2022/03/15 00:19:54;;;;;;;;;;;;;;;;;;1039892;28;1734;-31
2022/03/15 00:20:24;;;;;;;;;;;;;;;;;;1040055;28;942;-28
2022/03/15 00:20:55;;;;;;;;;;;;;;;;;;1040027;28;858;-32
2022/03/15 00:21:25;;;;;;;;;;;;;;;;;;1039904;28;893;-31
2022/03/15 00:21:55;;;;;;;;;;;;;;;;;;1040059;28;854;-31
2022/03/15 00:22:26;;;;;;;;;;;;;;;;;;1035542;28;665;-30
2022/03/15 00:22:57;;;;;;;;;;;;;;;;;;1035530;28;982;-34
2022/03/15 00:23:28;;;;;;;;;;;;;;;;;;1035222;28;866;-26
2022/03/15 00:23:59;;;;;;;;;;;;;;;;;;1035448;28;894;-29
2022/03/15 00:24:30;;;;;;;;;;;;;;;;;;1040017;28;1967;-31
2022/03/15 00:25:04;;;;;;;;;;;;;;;;;;1035585;28;791;-28
2022/03/15 00:25:35;;;;;;;;;;;;;;;;;;1031416;28;887;-32
2022/03/15 00:26:06;;;;;;;;;;;;;;;;;;1031576;28;823;-29
2022/03/15 00:26:37;;;;;;;;;;;;;;;;;;1032240;28;863;-34
2022/03/15 00:27:15;;;;;;;;;;;;;;;;;;1035847;28;868;-26
2022/03/15 00:27:50;;;;;;;;;;;;;;;;;;1035361;28;1252;-30
2022/03/15 00:28:24;;;;;;;;;;;;;;;;;;1035555;28;838;-29
2022/03/15 00:28:54;;;;;;;;;;;;;;;;;;1035596;28;810;-29
2022/03/15 00:29:25;;;;;;;;;;;;;;;;;;1035583;28;823;-26
2022/03/15 00:29:55;;;;;;;;;;;;;;;;;;1035853;28;820;-29
2022/03/15 00:30:26;;;;;;;;;;;;;;;;;;1035994;28;834;-34
2022/03/15 00:30:59;;;;;;;;;;;;;;;;;;1035223;28;827;-29
2022/03/15 00:31:31;;;;;;;;;;;;;;;;;;1035988;28;878;-28
2022/03/15 00:32:04;;;;;;;;;;;;;;;;;;1035775;28;1415;-31
2022/03/15 00:32:35;;;;;;;;;;;;;;;;;;1035871;28;890;-31
2022/03/15 00:33:07;;;;;;;;;;;;;;;;;;1035432;28;1543;-29
2022/03/15 00:33:39;;;;;;;;;;;;;;;;;;1035548;28;953;-30
2022/03/15 00:34:11;;;;;;;;;;;;;;;;;;1035577;28;823;-28
2022/03/15 00:34:41;;;;;;;;;;;;;;;;;;1035535;28;992;-27
2022/03/15 00:35:19;;;;;;;;;;;;;;;;;;1035943;28;846;-30
2022/03/15 00:35:53;;;;;;;;;;;;;;;;;;1035770;28;870;-31
2022/03/15 00:36:25;;;;;;;;;;;;;;;;;;1035688;28;1073;-34
2022/03/15 00:36:56;;;;;;;;;;;;;;;;;;1035862;28;843;-32
2022/03/15 00:37:26;;;;;;;;;;;;;;;;;;1035933;28;783;-28
2022/03/15 00:37:57;;;;;;;;;;;;;;;;;;1035283;28;803;-30
2022/03/15 00:38:28;;;;;;;;;;;;;;;;;;1034954;28;929;-31
2022/03/15 00:38:58;;;;;;;;;;;;;;;;;;1035467;28;863;-28
2022/03/15 00:39:29;;;;;;;;;;;;;;;;;;1035635;28;850;-33
2022/03/15 00:40:00;;;;;;;;;;;;;;;;;;1035649;28;942;-32
2022/03/15 00:40:30;;;;;;;;;;;;;;;;;;1035488;28;664;-28
2022/03/15 00:41:01;;;;;;;;;;;;;;;;;;1035422;28;946;-31
2022/03/15 00:41:32;;;;;;;;;;;;;;;;;;1031452;28;1621;-28
2022/03/15 00:42:03;;;;;;;;;;;;;;;;;;1031462;28;1134;-30
2022/03/15 00:42:33;;;;;;;;;;;;;;;;;;1031318;28;827;-33
2022/03/15 00:43:06;;;;;;;;;;;;;;;;;;1031571;28;824;-31
2022/03/15 00:43:36;;;;;;;;;;;;;;;;;;1035494;28;796;-29
2022/03/15 00:44:07;;;;;;;;;;;;;;;;;;1035500;28;818;-28
2022/03/15 00:44:38;;;;;;;;;;;;;;;;;;1035772;28;2267;-26
2022/03/15 00:45:08;;;;;;;;;;;;;;;;;;1035693;28;1217;-28
2022/03/15 00:45:38;;;;;;;;;;;;;;;;;;1035381;28;1001;-32
2022/03/15 00:46:09;;;;;;;;;;;;;;;;;;1035703;28;853;-31
2022/03/15 00:46:40;;;;;;;;;;;;;;;;;;1035701;28;917;-30
2022/03/15 00:47:12;;;;;;;;;;;;;;;;;;1039270;28;1265;-29
2022/03/15 00:47:45;;;;;;;;;;;;;;;;;;1035241;28;1580;-33
2022/03/15 00:48:19;;;;;;;;;;;;;;;;;;1035498;28;881;-31
2022/03/15 00:48:49;;;;;;;;;;;;;;;;;;1035536;28;898;-28
2022/03/15 00:49:20;;;;;;;;;;;;;;;;;;1035835;28;1029;-33
2022/03/15 00:49:50;;;;;;;;;;;;;;;;;;1040085;28;886;-31
2022/03/15 00:50:21;;;;;;;;;;;;;;;;;;1042167;28;1086;-29
2022/03/15 00:50:52;;;;;;;;;;;;;;;;;;1043999;28;834;-29
2022/03/15 00:51:22;;;;;;;;;;;;;;;;;;1043993;28;904;-26
2022/03/15 00:51:53;;;;;;;;;;;;;;;;;;1039447;28;791;-30
2022/03/15 00:52:23;;;;;;;;;;;;;;;;;;1039661;28;969;-28
2022/03/15 00:52:53;;;;;;;;;;;;;;;;;;1038996;28;1483;-28
2022/03/15 00:53:25;;;;;;;;;;;;;;;;;;1039009;28;782;-33
2022/03/15 00:53:56;;;;;;;;;;;;;;;;;;1044058;28;858;-33
2022/03/15 00:54:27;;;;;;;;;;;;;;;;;;1039453;28;1168;-28
2022/03/15 00:54:57;;;;;;;;;;;;;;;;;;1039478;28;945;-29
2022/03/15 00:55:28;;;;;;;;;;;;;;;;;;1046959;28;984;-30
2022/03/15 00:55:58;;;;;;;;;;;;;;;;;;1047578;28;813;-27
2022/03/15 00:56:28;;;;;;;;;;;;;;;;;;1047807;28;861;-31
2022/03/15 00:56:59;;;;;;;;;;;;;;;;;;1043448;28;1267;-31
2022/03/15 00:57:29;;;;;;;;;;;;;;;;;;1043768;28;987;-30
2022/03/15 00:57:59;;;;;;;;;;;;;;;;;;1043514;28;933;-29
2022/03/15 00:58:30;;;;;;;;;;;;;;;;;;1043615;28;972;-29
2022/03/15 00:59:00;;;;;;;;;;;;;;;;;;1044041;28;984;-26
2022/03/15 00:59:30;;;;;;;;;;;;;;;;;;1047141;28;794;-31
2022/03/15 01:00:01;;;;;;;;;;;;;;;;;;1048052;28;802;-31
2022/03/15 01:00:31;;;;;;;;;;;;;;;;;;1047579;28;980;-28
2022/03/15 01:01:02;;;;;;;;;;;;;;;;;;1047853;28;984;-31
2022/03/15 01:01:32;;;;;;;;;;;;;;;;;;1048171;28;834;-29
2022/03/15 01:02:03;;;;;;;;;;;;;;;;;;1048249;28;810;-30
2022/03/15 01:02:33;;;;;;;;;;;;;;;;;;1043489;28;1502;-28
2022/03/15 01:03:04;;;;;;;;;;;;;;;;;;1043701;28;807;-28
2022/03/15 01:03:35;;;;;;;;;;;;;;;;;;1039399;28;1491;-32
2022/03/15 01:04:05;;;;;;;;;;;;;;;;;;1039550;28;926;-33
2022/03/15 01:04:35;;;;;;;;;;;;;;;;;;1043572;28;1980;-30
2022/03/15 01:05:06;;;;;;;;;;;;;;;;;;1043631;28;1000;-31
2022/03/15 01:05:37;;;;;;;;;;;;;;;;;;1048081;28;925;-29
2022/03/15 01:06:07;;;;;;;;;;;;;;;;;;1043449;28;1136;-29
2022/03/15 01:06:38;;;;;;;;;;;;;;;;;;1043481;28;1359;-29
2022/03/15 01:07:12;;;;;;;;;;;;;;;;;;1043619;28;798;-32
2022/03/15 01:07:43;;;;;;;;;;;;;;;;;;1044006;28;869;-27
2022/03/15 01:08:14;;;;;;;;;;;;;;;;;;1047087;28;794;-27
2022/03/15 01:08:44;;;;;;;;;;;;;;;;;;1048290;28;846;-29
2022/03/15 01:09:14;;;;;;;;;;;;;;;;;;1047847;28;969;-28
2022/03/15 01:09:44;;;;;;;;;;;;;;;;;;1043682;28;647;-30
2022/03/15 01:10:16;;;;;;;;;;;;;;;;;;1043557;28;799;-31
2022/03/15 01:10:46;;;;;;;;;;;;;;;;;;1039508;28;1406;-28
2022/03/15 01:11:17;;;;;;;;;;;;;;;;;;1039576;28;858;-26
2022/03/15 01:11:47;;;;;;;;;;;;;;;;;;1043534;28;1130;-31
2022/03/15 01:12:18;;;;;;;;;;;;;;;;;;1043425;28;820;-29
2022/03/15 01:12:49;;;;;;;;;;;;;;;;;;1043839;28;833;-30
2022/03/15 01:13:19;;;;;;;;;;;;;;;;;;1047846;28;941;-32
2022/03/15 01:13:50;;;;;;;;;;;;;;;;;;1043619;28;918;-30
2022/03/15 01:14:21;;;;;;;;;;;;;;;;;;1043335;28;1267;-32
2022/03/15 01:14:51;;;;;;;;;;;;;;;;;;1043753;28;949;-30
2022/03/15 01:15:24;;;;;;;;;;;;;;;;;;1038725;28;1442;-29
2022/03/15 01:15:55;;;;;;;;;;;;;;;;;;1035648;28;1316;-30
2022/03/15 01:16:25;;;;;;;;;;;;;;;;;;1039457;28;799;-30
2022/03/15 01:16:56;;;;;;;;;;;;;;;;;;1035315;28;2572;-28
2022/03/15 01:17:26;;;;;;;;;;;;;;;;;;1039382;28;787;-28
2022/03/15 01:17:56;;;;;;;;;;;;;;;;;;1043399;28;1016;-31
2022/03/15 01:18:26;;;;;;;;;;;;;;;;;;1043555;28;890;-29
2022/03/15 01:18:57;;;;;;;;;;;;;;;;;;1043568;28;822;-28
2022/03/15 01:19:29;;;;;;;;;;;;;;;;;;1043421;28;1457;-29
2022/03/15 01:20:00;;;;;;;;;;;;;;;;;;1039281;28;1204;-30
2022/03/15 01:20:30;;;;;;;;;;;;;;;;;;1039395;28;1261;-27
2022/03/15 01:21:01;;;;;;;;;;;;;;;;;;1039274;28;1468;-28
2022/03/15 01:21:34;;;;;;;;;;;;;;;;;;1039409;28;953;-32
2022/03/15 01:22:05;;;;;;;;;;;;;;;;;;1040068;28;849;-33
2022/03/15 01:22:35;;;;;;;;;;;;;;;;;;1043681;28;863;-32
2022/03/15 01:23:06;;;;;;;;;;;;;;;;;;1047808;28;932;-31
2022/03/15 01:23:36;;;;;;;;;;;;;;;;;;1047839;28;937;-29
2022/03/15 01:24:08;;;;;;;;;;;;;;;;;;1048018;28;895;-32
2022/03/15 01:24:38;;;;;;;;;;;;;;;;;;1047769;28;1972;-29
2022/03/15 01:25:09;;;;;;;;;;;;;;;;;;1046855;28;1235;-29
2022/03/15 01:25:42;;;;;;;;;;;;;;;;;;1039311;28;854;-31
2022/03/15 01:26:14;;;;;;;;;;;;;;;;;;1039262;28;866;-32
2022/03/15 01:26:44;;;;;;;;;;;;;;;;;;1039457;28;941;-29
2022/03/15 01:27:15;;;;;;;;;;;;;;;;;;1039659;28;799;-32
2022/03/15 01:27:45;;;;;;;;;;;;;;;;;;1043680;28;1015;-31
2022/03/15 01:28:16;;;;;;;;;;;;;;;;;;1043757;28;944;-33
2022/03/15 01:28:46;;;;;;;;;;;;;;;;;;1043909;28;968;-30
2022/03/15 01:29:18;;;;;;;;;;;;;;;;;;1043726;28;890;-32
2022/03/15 01:29:49;;;;;;;;;;;;;;;;;;1039425;28;1227;-31
2022/03/15 01:30:20;;;;;;;;;;;;;;;;;;1038536;28;1239;-33
2022/03/15 01:30:51;;;;;;;;;;;;;;;;;;1039444;28;790;-33
2022/03/15 01:31:21;;;;;;;;;;;;;;;;;;1039524;28;846;-33
2022/03/15 01:31:52;;;;;;;;;;;;;;;;;;1043616;28;838;-31
2022/03/15 01:32:23;;;;;;;;;;;;;;;;;;1043847;28;830;-27
2022/03/15 01:32:53;;;;;;;;;;;;;;;;;;1043271;28;897;-28
2022/03/15 01:33:24;;;;;;;;;;;;;;;;;;1039379;28;1164;-29
2022/03/15 01:33:55;;;;;;;;;;;;;;;;;;1039417;28;942;-31
2022/03/15 01:34:27;;;;;;;;;;;;;;;;;;1039384;28;802;-29
2022/03/15 01:35:00;;;;;;;;;;;;;;;;;;1040193;28;823;-30
2022/03/15 01:35:31;;;;;;;;;;;;;;;;;;1039332;28;905;-31
2022/03/15 01:36:02;;;;;;;;;;;;;;;;;;1039560;28;870;-30
2022/03/15 01:36:34;;;;;;;;;;;;;;;;;;1035207;28;1387;-35
2022/03/15 01:37:05;;;;;;;;;;;;;;;;;;1031340;28;1201;-30
2022/03/15 01:37:35;;;;;;;;;;;;;;;;;;1034481;28;1253;-31
2022/03/15 01:38:13;;;;;;;;;;;;;;;;;;1036384;28;1169;-33
2022/03/15 01:38:43;;;;;;;;;;;;;;;;;;1035203;28;918;-29
2022/03/15 01:39:13;;;;;;;;;;;;;;;;;;1035356;28;909;-27
2022/03/15 01:39:45;;;;;;;;;;;;;;;;;;1035514;28;853;-28
2022/03/15 01:40:16;;;;;;;;;;;;;;;;;;1039724;28;893;-28
2022/03/15 01:40:48;;;;;;;;;;;;;;;;;;1039238;28;1183;-31
2022/03/15 01:41:19;;;;;;;;;;;;;;;;;;1039378;28;906;-30
2022/03/15 01:41:49;;;;;;;;;;;;;;;;;;1039386;28;954;-32
2022/03/15 01:42:19;;;;;;;;;;;;;;;;;;1039300;28;925;-29
2022/03/15 01:42:50;;;;;;;;;;;;;;;;;;1043910;28;817;-30
2022/03/15 01:43:20;;;;;;;;;;;;;;;;;;1043628;28;945;-29
2022/03/15 01:43:52;;;;;;;;;;;;;;;;;;1043761;28;850;-30
2022/03/15 01:44:23;;;;;;;;;;;;;;;;;;1043798;28;1914;-31
2022/03/15 01:44:53;;;;;;;;;;;;;;;;;;1043199;28;1249;-29
2022/03/15 01:45:31;;;;;;;;;;;;;;;;;;1043749;28;846;-28
2022/03/15 01:46:01;;;;;;;;;;;;;;;;;;1043668;28;902;-27
2022/03/15 01:46:32;;;;;;;;;;;;;;;;;;1043798;28;672;-33
2022/03/15 01:47:02;;;;;;;;;;;;;;;;;;1043724;28;1352;-32
2022/03/15 01:47:34;;;;;;;;;;;;;;;;;;1042909;28;1364;-29
2022/03/15 01:48:07;;;;;;;;;;;;;;;;;;1042961;28;842;-29
2022/03/15 01:48:39;;;;;;;;;;;;;;;;;;1043359;28;993;-31
2022/03/15 01:49:10;;;;;;;;;;;;;;;;;;1039305;28;858;-29
2022/03/15 01:49:41;;;;;;;;;;;;;;;;;;1035079;28;1403;-31
2022/03/15 01:50:15;;;;;;;;;;;;;;;;;;1035089;28;1157;-31
2022/03/15 01:50:46;;;;;;;;;;;;;;;;;;1035321;28;953;-30
2022/03/15 01:51:17;;;;;;;;;;;;;;;;;;1035877;28;1013;-30
2022/03/15 01:51:47;;;;;;;;;;;;;;;;;;1039608;28;802;-31
2022/03/15 01:52:18;;;;;;;;;;;;;;;;;;1038684;28;889;-35
2022/03/15 01:52:48;;;;;;;;;;;;;;;;;;1039271;28;869;-31
2022/03/15 01:53:19;;;;;;;;;;;;;;;;;;1039412;28;892;-30
2022/03/15 01:53:49;;;;;;;;;;;;;;;;;;1039226;28;1254;-29
2022/03/15 01:54:20;;;;;;;;;;;;;;;;;;1035207;28;1337;-32
2022/03/15 01:54:51;;;;;;;;;;;;;;;;;;1035288;28;1335;-30
2022/03/15 01:55:22;;;;;;;;;;;;;;;;;;1035288;28;846;-32
2022/03/15 01:55:53;;;;;;;;;;;;;;;;;;1034961;28;1160;-33
2022/03/15 01:56:23;;;;;;;;;;;;;;;;;;1031273;28;1141;-28
2022/03/15 01:56:55;;;;;;;;;;;;;;;;;;1031024;28;1220;-30
2022/03/15 01:57:26;;;;;;;;;;;;;;;;;;1031137;28;1452;-29
2022/03/15 01:57:58;;;;;;;;;;;;;;;;;;1030855;28;1475;-27
2022/03/15 01:58:28;;;;;;;;;;;;;;;;;;1027213;28;1216;-30
2022/03/15 01:59:00;;;;;;;;;;;;;;;;;;1023365;28;1209;-31
2022/03/15 01:59:31;;;;;;;;;;;;;;;;;;1023278;28;1550;-32
2022/03/15 02:00:02;;;;;;;;;;;;;;;;;;1022716;28;1186;-32
2022/03/15 02:00:33;;;;;;;;;;;;;;;;;;1031148;28;1196;-33
2022/03/15 02:01:05;;;;;;;;;;;;;;;;;;1031566;28;1192;-28
2022/03/15 02:01:36;;;;;;;;;;;;;;;;;;1035401;28;886;-33
2022/03/15 02:02:07;;;;;;;;;;;;;;;;;;1035358;28;953;-30
2022/03/15 02:02:38;;;;;;;;;;;;;;;;;;1039389;28;871;-29
2022/03/15 02:03:09;;;;;;;;;;;;;;;;;;1039456;28;922;-30
2022/03/15 02:03:39;;;;;;;;;;;;;;;;;;1039755;28;917;-30
2022/03/15 02:04:09;;;;;;;;;;;;;;;;;;1039421;28;938;-28
2022/03/15 02:04:40;;;;;;;;;;;;;;;;;;1039602;28;1964;-31
2022/03/15 02:05:11;;;;;;;;;;;;;;;;;;1039625;28;819;-34
2022/03/15 02:05:41;;;;;;;;;;;;;;;;;;1039689;28;951;-31
2022/03/15 02:06:12;;;;;;;;;;;;;;;;;;1039449;28;807;-29
2022/03/15 02:06:42;;;;;;;;;;;;;;;;;;1039646;28;1694;-32
2022/03/15 02:07:13;;;;;;;;;;;;;;;;;;1038985;28;807;-28
2022/03/15 02:07:43;;;;;;;;;;;;;;;;;;1034907;28;1424;-29
2022/03/15 02:08:14;;;;;;;;;;;;;;;;;;1035093;28;1758;-28
2022/03/15 02:08:45;;;;;;;;;;;;;;;;;;1035139;28;930;-26
2022/03/15 02:09:15;;;;;;;;;;;;;;;;;;1035340;28;818;-33
2022/03/15 02:09:45;;;;;;;;;;;;;;;;;;1035163;28;828;-33
2022/03/15 02:10:16;;;;;;;;;;;;;;;;;;1035204;28;962;-28
2022/03/15 02:10:46;;;;;;;;;;;;;;;;;;1035124;28;907;-27
2022/03/15 02:11:17;;;;;;;;;;;;;;;;;;1035166;28;965;-31
2022/03/15 02:11:47;;;;;;;;;;;;;;;;;;1039564;28;969;-27
2022/03/15 02:12:17;;;;;;;;;;;;;;;;;;1039601;28;878;-31
2022/03/15 02:12:48;;;;;;;;;;;;;;;;;;1039406;28;853;-32
2022/03/15 02:13:18;;;;;;;;;;;;;;;;;;1039637;28;973;-30
2022/03/15 02:13:49;;;;;;;;;;;;;;;;;;1039620;28;838;-28
2022/03/15 02:14:20;;;;;;;;;;;;;;;;;;1039574;28;937;-27
2022/03/15 02:14:50;;;;;;;;;;;;;;;;;;1038885;28;977;-29
2022/03/15 02:15:21;;;;;;;;;;;;;;;;;;1039626;28;835;-30
2022/03/15 02:15:52;;;;;;;;;;;;;;;;;;1039531;28;859;-29
2022/03/15 02:16:22;;;;;;;;;;;;;;;;;;1039616;28;1016;-29
2022/03/15 02:16:53;;;;;;;;;;;;;;;;;;1039428;28;898;-33
2022/03/15 02:17:23;;;;;;;;;;;;;;;;;;1039640;28;850;-27
2022/03/15 02:17:54;;;;;;;;;;;;;;;;;;1039471;28;921;-27
2022/03/15 02:18:26;;;;;;;;;;;;;;;;;;1035215;28;815;-31
2022/03/15 02:18:57;;;;;;;;;;;;;;;;;;1035201;28;1321;-29
2022/03/15 02:19:28;;;;;;;;;;;;;;;;;;1035091;28;790;-31
2022/03/15 02:19:59;;;;;;;;;;;;;;;;;;1035717;28;950;-28
2022/03/15 02:20:30;;;;;;;;;;;;;;;;;;1039454;28;863;-29
2022/03/15 02:21:01;;;;;;;;;;;;;;;;;;1039541;28;918;-29
2022/03/15 02:21:31;;;;;;;;;;;;;;;;;;1039498;28;878;-31
2022/03/15 02:22:01;;;;;;;;;;;;;;;;;;1039022;28;945;-30
2022/03/15 02:22:32;;;;;;;;;;;;;;;;;;1039526;28;826;-32
2022/03/15 02:23:04;;;;;;;;;;;;;;;;;;1039558;28;810;-30
2022/03/15 02:23:34;;;;;;;;;;;;;;;;;;1039450;28;950;-32
2022/03/15 02:24:05;;;;;;;;;;;;;;;;;;1039710;28;874;-28
2022/03/15 02:24:38;;;;;;;;;;;;;;;;;;1039459;28;1975;-31
2022/03/15 02:25:08;;;;;;;;;;;;;;;;;;1040329;28;1200;-32
2022/03/15 02:25:39;;;;;;;;;;;;;;;;;;1043749;28;890;-34
2022/03/15 02:26:09;;;;;;;;;;;;;;;;;;1043580;28;930;-34
2022/03/15 02:26:41;;;;;;;;;;;;;;;;;;1043786;28;818;-32
2022/03/15 02:27:12;;;;;;;;;;;;;;;;;;1043563;28;881;-32
2022/03/15 02:27:42;;;;;;;;;;;;;;;;;;1043614;28;1013;-31
2022/03/15 02:28:13;;;;;;;;;;;;;;;;;;1043594;28;995;-31
2022/03/15 02:28:44;;;;;;;;;;;;;;;;;;1043600;28;989;-27
2022/03/15 02:29:14;;;;;;;;;;;;;;;;;;1043368;28;905;-31
2022/03/15 02:29:45;;;;;;;;;;;;;;;;;;1043478;28;873;-28
2022/03/15 02:30:16;;;;;;;;;;;;;;;;;;1043663;28;819;-27
2022/03/15 02:30:46;;;;;;;;;;;;;;;;;;1043685;28;846;-32
2022/03/15 02:31:16;;;;;;;;;;;;;;;;;;1043628;28;902;-27
2022/03/15 02:31:47;;;;;;;;;;;;;;;;;;1043511;28;902;-30
2022/03/15 02:32:18;;;;;;;;;;;;;;;;;;1043697;28;803;-29
2022/03/15 02:32:48;;;;;;;;;;;;;;;;;;1043585;28;869;-33
2022/03/15 02:33:18;;;;;;;;;;;;;;;;;;1043714;28;933;-31
2022/03/15 02:33:49;;;;;;;;;;;;;;;;;;1043567;28;802;-28
2022/03/15 02:34:22;;;;;;;;;;;;;;;;;;1043688;28;831;-30
2022/03/15 02:34:52;;;;;;;;;;;;;;;;;;1043671;28;798;-34
2022/03/15 02:35:22;;;;;;;;;;;;;;;;;;1043582;28;914;-30
2022/03/15 02:35:53;;;;;;;;;;;;;;;;;;1043579;28;930;-32
2022/03/15 02:36:23;;;;;;;;;;;;;;;;;;1043721;28;866;-30
2022/03/15 02:36:53;;;;;;;;;;;;;;;;;;1042879;28;1024;-33
2022/03/15 02:37:24;;;;;;;;;;;;;;;;;;1043688;28;791;-29
2022/03/15 02:37:55;;;;;;;;;;;;;;;;;;1043216;28;987;-29
2022/03/15 02:38:26;;;;;;;;;;;;;;;;;;1043718;28;944;-29
2022/03/15 02:38:57;;;;;;;;;;;;;;;;;;1043593;28;889;-29
2022/03/15 02:39:27;;;;;;;;;;;;;;;;;;1043657;28;898;-29
2022/03/15 02:39:58;;;;;;;;;;;;;;;;;;1043591;28;833;-26
2022/03/15 02:40:28;;;;;;;;;;;;;;;;;;1043600;28;929;-33
2022/03/15 02:40:58;;;;;;;;;;;;;;;;;;1043637;28;997;-31
2022/03/15 02:41:28;;;;;;;;;;;;;;;;;;1043756;28;854;-30
2022/03/15 02:41:59;;;;;;;;;;;;;;;;;;1043420;28;932;-30
2022/03/15 02:42:30;;;;;;;;;;;;;;;;;;1043759;28;880;-28
2022/03/15 02:43:00;;;;;;;;;;;;;;;;;;1043689;28;1030;-32
2022/03/15 02:43:31;;;;;;;;;;;;;;;;;;1043657;28;886;-30
2022/03/15 02:44:02;;;;;;;;;;;;;;;;;;1043288;28;815;-32
2022/03/15 02:44:32;;;;;;;;;;;;;;;;;;1043158;28;1906;-31
2022/03/15 02:45:03;;;;;;;;;;;;;;;;;;1043506;28;1233;-26
2022/03/15 02:45:34;;;;;;;;;;;;;;;;;;1043756;28;984;-28
2022/03/15 02:46:04;;;;;;;;;;;;;;;;;;1043572;28;1130;-27
2022/03/15 02:46:36;;;;;;;;;;;;;;;;;;1043652;28;894;-29
2022/03/15 02:47:07;;;;;;;;;;;;;;;;;;1043274;28;1254;-31
2022/03/15 02:47:42;;;;;;;;;;;;;;;;;;1043683;28;953;-33
2022/03/15 02:48:13;;;;;;;;;;;;;;;;;;1043501;28;981;-29
2022/03/15 02:48:44;;;;;;;;;;;;;;;;;;1043676;28;850;-33
2022/03/15 02:49:14;;;;;;;;;;;;;;;;;;1043519;28;934;-30
2022/03/15 02:49:45;;;;;;;;;;;;;;;;;;1043519;28;948;-31
2022/03/15 02:50:16;;;;;;;;;;;;;;;;;;1043630;28;890;-31
2022/03/15 02:50:47;;;;;;;;;;;;;;;;;;1041717;28;1093;-29
2022/03/15 02:51:18;;;;;;;;;;;;;;;;;;1039488;28;858;-29
2022/03/15 02:51:48;;;;;;;;;;;;;;;;;;1038965;28;861;-34
2022/03/15 02:52:20;;;;;;;;;;;;;;;;;;1039430;28;850;-30
2022/03/15 02:52:50;;;;;;;;;;;;;;;;;;1039452;28;889;-30
2022/03/15 02:53:21;;;;;;;;;;;;;;;;;;1039628;28;858;-31
2022/03/15 02:53:52;;;;;;;;;;;;;;;;;;1039341;28;850;-32
2022/03/15 02:54:23;;;;;;;;;;;;;;;;;;1039629;28;849;-28
2022/03/15 02:54:53;;;;;;;;;;;;;;;;;;1039324;28;957;-31
2022/03/15 02:55:25;;;;;;;;;;;;;;;;;;1039480;28;901;-32
2022/03/15 02:55:58;;;;;;;;;;;;;;;;;;1039554;28;907;-32
2022/03/15 02:56:29;;;;;;;;;;;;;;;;;;1039349;28;799;-32
2022/03/15 02:57:01;;;;;;;;;;;;;;;;;;1039494;28;885;-34
2022/03/15 02:57:32;;;;;;;;;;;;;;;;;;1039407;28;1036;-30
2022/03/15 02:58:04;;;;;;;;;;;;;;;;;;1039202;28;878;-33
2022/03/15 02:58:34;;;;;;;;;;;;;;;;;;1035603;28;981;-29
2022/03/15 02:59:05;;;;;;;;;;;;;;;;;;1030479;28;1712;-32
2022/03/15 02:59:36;;;;;;;;;;;;;;;;;;1039742;28;830;-28
2022/03/15 03:00:06;;;;;;;;;;;;;;;;;;1040306;28;901;-34
2022/03/15 03:00:37;;;;;;;;;;;;;;;;;;1040405;28;933;-31
2022/03/15 03:01:08;;;;;;;;;;;;;;;;;;1040290;28;1000;-28
2022/03/15 03:01:39;;;;;;;;;;;;;;;;;;1040353;28;893;-31
2022/03/15 03:02:10;;;;;;;;;;;;;;;;;;1040258;28;795;-29
2022/03/15 03:02:40;;;;;;;;;;;;;;;;;;1040468;28;956;-28
2022/03/15 03:03:11;;;;;;;;;;;;;;;;;;1040091;28;937;-28
2022/03/15 03:03:41;;;;;;;;;;;;;;;;;;1040421;28;981;-27
2022/03/15 03:04:12;;;;;;;;;;;;;;;;;;1040265;28;957;-27
2022/03/15 03:04:43;;;;;;;;;;;;;;;;;;1040221;28;1993;-28
2022/03/15 03:05:13;;;;;;;;;;;;;;;;;;1040135;28;828;-29
2022/03/15 03:05:44;;;;;;;;;;;;;;;;;;1040429;28;926;-27
2022/03/15 03:06:14;;;;;;;;;;;;;;;;;;1040104;28;886;-26
2022/03/15 03:06:46;;;;;;;;;;;;;;;;;;1040124;28;862;-29
2022/03/15 03:07:18;;;;;;;;;;;;;;;;;;1040183;28;877;-32
2022/03/15 03:07:49;;;;;;;;;;;;;;;;;;1040220;28;889;-33
2022/03/15 03:08:23;;;;;;;;;;;;;;;;;;1040194;28;882;-30
2022/03/15 03:08:54;;;;;;;;;;;;;;;;;;1040381;28;933;-27
2022/03/15 03:09:24;;;;;;;;;;;;;;;;;;1039927;28;874;-30
2022/03/15 03:09:55;;;;;;;;;;;;;;;;;;1039989;28;929;-32
2022/03/15 03:10:25;;;;;;;;;;;;;;;;;;1039945;28;945;-29
2022/03/15 03:10:56;;;;;;;;;;;;;;;;;;1039994;28;787;-27
2022/03/15 03:11:26;;;;;;;;;;;;;;;;;;1040107;28;791;-25
2022/03/15 03:11:57;;;;;;;;;;;;;;;;;;1040459;28;933;-29
2022/03/15 03:12:28;;;;;;;;;;;;;;;;;;1040049;28;937;-32
2022/03/15 03:12:59;;;;;;;;;;;;;;;;;;1040415;28;874;-28
2022/03/15 03:13:30;;;;;;;;;;;;;;;;;;1040024;28;1734;-28
2022/03/15 03:14:01;;;;;;;;;;;;;;;;;;1039847;28;904;-29
2022/03/15 03:14:34;;;;;;;;;;;;;;;;;;1040226;28;949;-31
2022/03/15 03:15:09;;;;;;;;;;;;;;;;;;1040259;28;918;-30
2022/03/15 03:15:40;;;;;;;;;;;;;;;;;;1040257;28;905;-28
2022/03/15 03:16:14;;;;;;;;;;;;;;;;;;1040163;28;957;-28
2022/03/15 03:16:44;;;;;;;;;;;;;;;;;;1040454;28;795;-25
2022/03/15 03:17:14;;;;;;;;;;;;;;;;;;1040301;28;850;-31
2022/03/15 03:17:45;;;;;;;;;;;;;;;;;;1039987;28;996;-30
2022/03/15 03:18:16;;;;;;;;;;;;;;;;;;1040150;28;1428;-28
2022/03/15 03:18:48;;;;;;;;;;;;;;;;;;1040256;28;834;-32
2022/03/15 03:19:19;;;;;;;;;;;;;;;;;;1040247;28;822;-30
2022/03/15 03:19:49;;;;;;;;;;;;;;;;;;1040194;28;929;-30
2022/03/15 03:20:21;;;;;;;;;;;;;;;;;;1040105;28;818;-28
2022/03/15 03:20:55;;;;;;;;;;;;;;;;;;1040279;28;783;-31
2022/03/15 03:21:26;;;;;;;;;;;;;;;;;;1039425;28;834;-27
2022/03/15 03:21:56;;;;;;;;;;;;;;;;;;1040296;28;863;-30
2022/03/15 03:22:26;;;;;;;;;;;;;;;;;;1040181;28;925;-31
2022/03/15 03:22:58;;;;;;;;;;;;;;;;;;1040300;28;827;-34
2022/03/15 03:23:29;;;;;;;;;;;;;;;;;;1040241;28;889;-32
2022/03/15 03:23:59;;;;;;;;;;;;;;;;;;1040171;28;1033;-26
2022/03/15 03:24:30;;;;;;;;;;;;;;;;;;1039997;28;1981;-30
2022/03/15 03:25:00;;;;;;;;;;;;;;;;;;1040383;28;870;-30
2022/03/15 03:25:31;;;;;;;;;;;;;;;;;;1043883;28;1622;-32
2022/03/15 03:26:02;;;;;;;;;;;;;;;;;;1044310;28;1661;-29
2022/03/15 03:26:38;;;;;;;;;;;;;;;;;;1044265;28;993;-30
2022/03/15 03:27:13;;;;;;;;;;;;;;;;;;1044244;28;877;-38
2022/03/15 03:27:44;;;;;;;;;;;;;;;;;;1040106;28;847;-26
2022/03/15 03:28:14;;;;;;;;;;;;;;;;;;1040897;28;920;-30
2022/03/15 03:28:44;;;;;;;;;;;;;;;;;;1043728;28;877;-34
2022/03/15 03:29:15;;;;;;;;;;;;;;;;;;1044403;28;988;-29
2022/03/15 03:29:45;;;;;;;;;;;;;;;;;;1044129;28;929;-31
2022/03/15 03:30:16;;;;;;;;;;;;;;;;;;1044343;28;953;-32
2022/03/15 03:30:48;;;;;;;;;;;;;;;;;;1044201;28;802;-28
2022/03/15 03:31:18;;;;;;;;;;;;;;;;;;1044361;28;949;-32
2022/03/15 03:31:49;;;;;;;;;;;;;;;;;;1044247;28;1064;-28
2022/03/15 03:32:20;;;;;;;;;;;;;;;;;;1044293;28;774;-31
2022/03/15 03:32:51;;;;;;;;;;;;;;;;;;1044393;28;937;-28
2022/03/15 03:33:22;;;;;;;;;;;;;;;;;;1044277;28;913;-28
2022/03/15 03:33:52;;;;;;;;;;;;;;;;;;1044375;28;898;-33
2022/03/15 03:34:22;;;;;;;;;;;;;;;;;;1044370;28;771;-30
2022/03/15 03:34:56;;;;;;;;;;;;;;;;;;1044165;28;861;-31
2022/03/15 03:35:27;;;;;;;;;;;;;;;;;;1044281;28;937;-32
2022/03/15 03:35:59;;;;;;;;;;;;;;;;;;1043003;28;1000;-31
2022/03/15 03:36:32;;;;;;;;;;;;;;;;;;1040041;28;1075;-31
2022/03/15 03:37:03;;;;;;;;;;;;;;;;;;1040244;28;926;-31
2022/03/15 03:37:34;;;;;;;;;;;;;;;;;;1039967;28;784;-30
2022/03/15 03:38:05;;;;;;;;;;;;;;;;;;1040230;28;1039;-31